Pocatello Rgnl Information

FAA: PIH - ICAO: KPIH

Pocatello Rgnl (Airport) Location

State Idaho
County Power
City Pocatello
Pocatello Rgnl (Airport) is 7 miles northwest of Pocatello, ID.
Latitude 42-54-35.2530N
Longitude 112-35-45.3080W
Elevation 4,451ft

Pocatello Rgnl METARs

METAR KPIH 251653Z 21009KT 10SM CLR M08/M11 A3033 RMK AO2 SLP323 T10831111
Altimeter 30.33"
Temperature -8.3°C (17.1°F)
Wind 210° at 9KT
Clouds Skies are clear.
Visibility 10.0mi
Time observed: 2022-01-25T16:53:00Z

Pocatello Rgnl (Airport) Details

Status Operational
Activation February 1944
Ownership Public
Usage Public
Chart SALT LAKE CITY
ATC on-site Yes
Beacon schedule sunset-sunrise
Beacon color clear green

Pocatello Rgnl (Airport) Contacts

Owner CITY OF POCATELLO
Owner address P.O. BOX 4169, POCATELLO, ID 83205-4169
Owner phone 208-234-6163
Manager DIV ADMIN
Manager address P.O. BOX 7129, BOISE, ID 83707-1129
Manager phone 208-334-8775

Pocatello Rgnl Radio Frequencies

Pocatello Rgnl (Airport) Radio Frequencies

UNICOM 122.95
Common traffic advisory frequency (CTAF) 119.1